VA53 weather

Nichols Heliport
White Stone, Virginia, United States

Public forecast

Using degrees Fahrenheit for public forecast. Weather courtesy of forecast.io.

Closest aviation weather report (METAR) to Nichols Heliport

Closest report is Middle Peninsula Regional Airport, 17.5 nm (32.4 km) WSW. Retrieved 2019/12/07 13:35 UTC (21 minutes ago):

KFYJ 071335Z AUTO 34006KT 10SM CLR 05/M03 A3040 RMK AO1 T00451035

Closest aviation forecast (TAF) to Nichols Heliport

Closest forecast is Newport News Williamsburg International Airport, 31.1 nm (57.6 km) S. Retrieved 2019/12/07 12:22 UTC (2 hours ago):

TAF KPHF 071120Z 0712/0812 04011KT P6SM SCT050 FM071800 03008KT P6SM SKC FM080000 06004KT P6SM SKC